Time;durP1;ratioP1;P1;durP2;ratioP2;P2;SDS_P1;SDS_P2;PMS_P1;PMS_P2;Temp;Humidity;BMP_temperature;BMP_pressure;BME280_temperature;BME280_humidity;BME280_pressure;Samples;Min_cycle;Max_cycle;Signal;HPM_P1;HPM_P2
2022/11/04 00:00:18;;;;;;;1999.90;999.90;;;;;;;12.73;100.00;94241.63;5017173;28;20174;-59
2022/11/04 00:02:43;;;;;;;1999.90;999.90;;;;;;;12.70;100.00;94255.44;5000023;28;20185;-59
2022/11/04 00:05:08;;;;;;;1999.90;999.90;;;;;;;12.71;100.00;94265.19;5016473;28;20328;-59
2022/11/04 00:12:23;;;;;;;1999.90;999.90;;;;;;;12.71;100.00;94270.66;5016923;28;20204;-59
2022/11/04 00:13:03;;;;;;;1999.90;999.90;;;;;;;12.74;100.00;94297.19;5016376;28;20170;-61
2022/11/04 00:18:12;;;;;;;1999.90;999.90;;;;;;;12.73;100.00;94309.34;5016968;28;20166;-59
2022/11/04 00:28:53;;;;;;;1999.90;999.90;;;;;;;12.64;100.00;94320.25;5016607;28;20173;-60
2022/11/04 00:34:02;;;;;;;1999.90;999.90;;;;;;;12.57;100.00;94312.25;5016638;28;20220;-77
2022/11/04 00:36:27;;;;;;;1999.90;999.90;;;;;;;12.54;100.00;94313.88;4998692;28;20208;-61
2022/11/04 00:38:53;;;;;;;1999.90;999.90;;;;;;;12.41;100.00;94315.13;4997841;28;20246;-61
2022/11/04 00:41:28;;;;;;;1999.90;999.90;;;;;;;12.42;100.00;94308.47;4998774;28;20182;-60
2022/11/04 00:43:59;;;;;;;1999.90;999.90;;;;;;;12.35;100.00;94322.38;4998539;28;20259;-61
2022/11/04 00:46:26;;;;;;;1999.90;999.90;;;;;;;12.28;100.00;94317.13;4998720;28;20177;-62
2022/11/04 00:48:51;;;;;;;1999.90;999.90;;;;;;;12.29;100.00;94335.06;4998964;28;20180;-60
2022/11/04 00:51:17;;;;;;;1999.90;999.90;;;;;;;12.24;100.00;94327.44;4998652;28;20187;-66
2022/11/04 00:53:42;;;;;;;1999.90;999.90;;;;;;;12.21;100.00;94336.50;4998536;28;20176;-62
2022/11/04 00:56:07;;;;;;;1999.90;999.90;;;;;;;12.19;100.00;94341.66;4998794;28;20210;-62
2022/11/04 00:58:33;;;;;;;1999.90;999.90;;;;;;;12.07;100.00;94345.16;4998348;28;20207;-63
2022/11/04 01:00:58;;;;;;;1999.90;999.90;;;;;;;11.88;100.00;94330.47;4998488;28;20183;-62
2022/11/04 01:03:23;;;;;;;1999.90;999.90;;;;;;;11.75;100.00;94318.00;4997949;28;20212;-62
2022/11/04 01:05:49;;;;;;;1999.90;999.90;;;;;;;11.66;100.00;94309.69;4998324;28;20176;-63
2022/11/04 01:08:14;;;;;;;1999.90;999.90;;;;;;;11.50;100.00;94290.59;4998190;28;20233;-63
2022/11/04 01:10:43;;;;;;;1999.90;999.90;;;;;;;11.29;100.00;94285.78;4998620;28;20183;-68
2022/11/04 01:13:12;;;;;;;1999.90;999.90;;;;;;;11.24;100.00;94261.69;4997963;28;20171;-67
2022/11/04 01:15:38;;;;;;;1999.90;999.90;;;;;;;11.09;100.00;94228.56;4998733;28;20206;-68
2022/11/04 01:18:04;;;;;;;1999.90;999.90;;;;;;;11.02;100.00;94195.22;4998047;28;20175;-69
2022/11/04 01:20:31;;;;;;;1999.90;999.90;;;;;;;10.90;100.00;94161.22;4998226;28;20264;-68
2022/11/04 01:22:56;;;;;;;1999.90;999.90;;;;;;;10.79;100.00;94138.16;4997827;28;20175;-67
2022/11/04 01:25:22;;;;;;;1999.90;999.90;;;;;;;10.70;100.00;94108.00;4998544;28;20202;-67
2022/11/04 01:27:47;;;;;;;1999.90;999.90;;;;;;;10.64;100.00;94072.31;4998605;28;20175;-77
2022/11/04 01:30:12;;;;;;;1999.90;999.90;;;;;;;10.63;100.00;94048.16;4997964;28;20586;-69
2022/11/04 01:32:38;;;;;;;1999.90;999.90;;;;;;;10.56;100.00;94012.88;4998556;28;20175;-74
2022/11/04 01:35:04;;;;;;;1999.90;999.90;;;;;;;10.49;100.00;93963.97;4998359;28;20198;-74
2022/11/04 01:37:29;;;;;;;1999.90;999.90;;;;;;;10.39;100.00;93951.41;4997382;28;20220;-76
2022/11/04 01:39:55;;;;;;;1999.90;999.90;;;;;;;10.34;100.00;93906.34;4998288;28;20209;-76
2022/11/04 01:42:21;;;;;;;1999.90;999.90;;;;;;;10.34;100.00;93873.59;4997780;28;20226;-75
2022/11/04 01:44:56;;;;;;;1999.90;999.90;;;;;;;10.28;100.00;93839.91;4998191;28;20172;-75
2022/11/04 01:47:30;;;;;;;1999.90;999.90;;;;;;;10.23;100.00;93826.06;4997355;28;20175;-62
2022/11/04 01:50:10;;;;;;;1999.90;999.90;;;;;;;10.20;100.00;93814.03;5013955;28;20242;-69
2022/11/04 01:52:48;;;;;;;1999.90;999.90;;;;;;;10.20;100.00;93797.66;4998078;28;20171;-69
2022/11/04 01:55:19;;;;;;;1999.90;999.90;;;;;;;10.15;100.00;93773.69;4997630;28;20297;-70
2022/11/04 01:57:48;;;;;;;1999.90;999.90;;;;;;;10.12;100.00;93768.34;4997406;28;20234;-70
2022/11/04 02:00:14;;;;;;;1999.90;999.90;;;;;;;10.09;100.00;93759.84;4998023;28;20177;-70
2022/11/04 02:02:48;;;;;;;1999.90;999.90;;;;;;;10.09;100.00;93748.94;4997348;28;20238;-71
2022/11/04 02:05:13;;;;;;;1999.90;999.90;;;;;;;10.12;100.00;93754.72;4998141;28;20194;-69
2022/11/04 02:07:39;;;;;;;1999.90;999.90;;;;;;;10.10;100.00;93755.91;4997994;28;20179;-60
2022/11/04 02:10:04;;;;;;;1999.90;999.90;;;;;;;10.09;100.00;93754.38;4997855;28;20242;-61
2022/11/04 02:12:48;;;;;;;1999.90;999.90;;;;;;;10.08;100.00;93768.47;4997205;28;20537;-61
2022/11/04 02:15:14;;;;;;;1999.90;999.90;;;;;;;10.07;100.00;93767.72;4998133;28;20202;-60
2022/11/04 02:17:58;;;;;;;1999.90;999.90;;;;;;;10.04;100.00;93768.56;4997097;28;20175;-60
2022/11/04 02:20:35;;;;;;;1999.90;999.90;;;;;;;10.01;100.00;93791.25;4997855;28;20181;-60
2022/11/04 02:23:04;;;;;;;1999.90;999.90;;;;;;;10.03;100.00;93816.09;4997352;28;20171;-71
2022/11/04 02:26:08;;;;;;;1999.90;999.90;;;;;;;10.02;100.00;93839.13;4997838;28;20175;-61
2022/11/04 02:28:42;;;;;;;1999.90;999.90;;;;;;;10.07;100.00;93851.47;4997411;28;20175;-62
2022/11/04 02:31:33;;;;;;;1999.90;999.90;;;;;;;10.05;100.00;93872.94;4997186;28;20269;-62
2022/11/04 02:34:18;;;;;;;1999.90;999.90;;;;;;;10.08;100.00;93883.78;4989590;28;20198;-61
2022/11/04 02:36:55;;;;;;;1999.90;999.90;;;;;;;10.11;100.00;93898.50;4997593;28;20656;-61
2022/11/04 02:39:42;;;;;;;1999.90;999.90;;;;;;;10.13;100.00;93898.06;4997118;28;20573;-61
2022/11/04 02:42:20;;;;;;;1999.90;999.90;;;;;;;10.12;100.00;93910.94;4997097;28;20278;-68
2022/11/04 02:44:59;;;;;;;1999.90;999.90;;;;;;;10.09;100.00;93931.66;4997707;28;20179;-60
2022/11/04 02:47:28;;;;;;;1999.90;999.90;;;;;;;10.06;100.00;93939.97;4997543;28;20166;-60
2022/11/04 02:50:09;;;;;;;1999.90;999.90;;;;;;;10.10;100.00;93935.16;4996921;28;20183;-60
2022/11/04 02:52:48;;;;;;;1999.90;999.90;;;;;;;10.08;100.00;93938.31;4997226;28;20203;-60
2022/11/04 02:55:24;;;;;;;1999.90;999.90;;;;;;;10.07;100.00;93947.72;4997499;28;20262;-60
2022/11/04 02:57:52;;;;;;;1999.90;999.90;;;;;;;10.06;100.00;93946.16;4997562;28;20521;-61
2022/11/04 03:00:21;;;;;;;1999.90;999.90;;;;;;;10.05;100.00;93961.00;4996858;28;20186;-70
2022/11/04 03:03:16;;;;;;;1999.90;999.90;;;;;;;10.04;100.00;93966.88;5000904;28;20215;-74
2022/11/04 03:05:46;;;;;;;1999.90;999.90;;;;;;;10.01;100.00;93982.13;4998892;28;20191;-74
2022/11/04 03:08:19;;;;;;;1999.90;999.90;;;;;;;9.98;100.00;93988.44;5001103;28;20699;-75
2022/11/04 03:10:52;;;;;;;1999.90;999.90;;;;;;;10.02;100.00;94002.75;5000566;28;20175;-74
2022/11/04 03:13:40;;;;;;;1999.90;999.90;;;;;;;10.03;100.00;94007.00;5000986;28;20258;-74
2022/11/04 03:16:11;;;;;;;1999.90;999.90;;;;;;;10.00;100.00;94023.47;4971852;28;20219;-77
2022/11/04 03:18:37;;;;;;;1999.90;999.90;;;;;;;10.04;100.00;94022.19;5000223;28;20264;-71
2022/11/04 03:21:06;;;;;;;1999.90;999.90;;;;;;;10.03;100.00;94045.19;5000448;28;20212;-60
2022/11/04 03:23:33;;;;;;;1999.90;999.90;;;;;;;10.00;100.00;94062.44;5000491;28;20175;-60
2022/11/04 03:26:13;;;;;;;1999.90;999.90;;;;;;;9.95;100.00;94068.38;5000074;28;20179;-60
2022/11/04 03:29:03;;;;;;;1999.90;999.90;;;;;;;9.96;100.00;94089.03;5000818;28;20167;-60
2022/11/04 03:31:48;;;;;;;1999.90;999.90;;;;;;;9.95;100.00;94087.47;5000483;28;20213;-59
2022/11/04 03:34:14;;;;;;;1999.90;999.90;;;;;;;9.97;100.00;94079.66;5000118;28;20163;-59
2022/11/04 03:36:39;;;;;;;1999.90;999.90;;;;;;;9.96;100.00;94089.03;5000276;28;20210;-61
2022/11/04 03:39:05;;;;;;;1999.90;999.90;;;;;;;9.98;100.00;94083.91;4999786;28;20218;-67
2022/11/04 03:41:40;;;;;;;1999.90;999.90;;;;;;;9.96;100.00;94091.75;4999810;28;20243;-76
2022/11/04 03:44:05;;;;;;;1999.90;999.90;;;;;;;9.94;100.00;94098.81;4999936;28;20170;-76
2022/11/04 03:46:30;;;;;;;1999.90;999.90;;;;;;;9.91;100.00;94105.16;5000367;28;20236;-75
2022/11/04 03:48:58;;;;;;;1999.90;999.90;;;;;;;9.87;100.00;94120.81;4999966;28;20218;-75
2022/11/04 03:51:23;;;;;;;1999.90;999.90;;;;;;;9.85;100.00;94129.44;5000305;28;20214;-75
2022/11/04 03:53:49;;;;;;;1999.90;999.90;;;;;;;9.85;100.00;94132.16;4999761;28;20266;-73
2022/11/04 03:56:45;;;;;;;1999.90;999.90;;;;;;;9.82;100.00;94126.78;4999802;28;20206;-58
2022/11/04 03:59:38;;;;;;;1999.90;999.90;;;;;;;9.79;100.00;94125.69;4999648;28;20171;-58
2022/11/04 04:02:15;;;;;;;1999.90;999.90;;;;;;;9.76;100.00;94123.81;4999746;28;20172;-58
2022/11/04 04:04:59;;;;;;;1999.90;999.90;;;;;;;9.75;100.00;94127.75;4999644;28;20202;-61
2022/11/04 04:07:37;;;;;;;1999.90;999.90;;;;;;;9.77;100.00;94136.25;4999912;28;20503;-58
2022/11/04 04:10:37;;;;;;;1999.90;999.90;;;;;;;9.76;100.00;94133.94;4999912;28;20172;-58
2022/11/04 04:13:02;;;;;;;1999.90;999.90;;;;;;;9.77;100.00;94130.06;5015475;28;20181;-68
2022/11/04 04:15:37;;;;;;;1999.90;999.90;;;;;;;9.75;100.00;94116.84;4999508;28;20195;-58
2022/11/04 04:18:08;;;;;;;1999.90;999.90;;;;;;;9.73;100.00;94124.69;4999742;28;20182;-57
2022/11/04 04:20:37;;;;;;;1999.90;999.90;;;;;;;9.72;100.00;94125.88;4999914;28;20206;-57
2022/11/04 04:28:51;;;;;;;1999.90;999.90;;;;;;;9.70;100.00;94143.84;5016725;28;20229;-57
2022/11/04 04:31:48;;;;;;;1999.90;999.90;;;;;;;9.70;100.00;94149.31;4998996;28;20179;-58
2022/11/04 04:34:04;;;;;;;1999.90;999.90;;;;;;;9.73;100.00;94141.03;5016471;28;20237;-59
2022/11/04 04:36:34;;;;;;;1999.90;999.90;;;;;;;9.75;100.00;94144.09;4998913;28;20217;-67
2022/11/04 04:47:22;;;;;;;1999.90;999.90;;;;;;;9.75;100.00;94186.94;5016371;28;20178;-67
2022/11/04 04:49:56;;;;;;;1999.90;999.90;;;;;;;9.76;100.00;94191.97;5016084;28;20175;-61
2022/11/04 04:52:23;;;;;;;1999.90;999.90;;;;;;;9.78;100.00;94207.91;4998570;28;20176;-61
2022/11/04 04:54:48;;;;;;;1999.90;999.90;;;;;;;9.84;100.00;94223.31;4998745;28;20183;-68
2022/11/04 04:57:14;;;;;;;1999.90;999.90;;;;;;;9.85;100.00;94235.78;4998589;28;20182;-68
2022/11/04 04:59:39;;;;;;;1999.90;999.90;;;;;;;9.88;100.00;94240.34;4998197;28;20241;-67
2022/11/04 05:02:05;;;;;;;1999.90;999.90;;;;;;;9.91;100.00;94244.97;4998426;28;20182;-69
2022/11/04 05:04:30;;;;;;;1999.90;999.90;;;;;;;9.92;100.00;94249.22;5015648;28;20196;-69
2022/11/04 05:06:55;;;;;;;1999.90;999.90;;;;;;;9.89;100.00;94243.84;4998376;28;20214;-69
2022/11/04 05:09:21;;;;;;;1999.90;999.90;;;;;;;9.88;100.00;94248.53;4998339;28;20175;-59
2022/11/04 05:11:46;;;;;;;1999.90;999.90;;;;;;;9.82;100.00;94255.72;4998466;28;20179;-71
2022/11/04 05:14:12;;;;;;;1999.90;999.90;;;;;;;9.80;100.00;94247.19;4998193;28;20209;-72
2022/11/04 05:16:37;;;;;;;1999.90;999.90;;;;;;;9.75;100.00;94236.78;5015233;28;20207;-74
2022/11/04 05:19:04;;;;;;;1999.90;999.90;;;;;;;9.74;100.00;94229.03;4998679;28;20175;-74
2022/11/04 05:21:30;;;;;;;1999.90;999.90;;;;;;;9.76;100.00;94211.06;4998086;28;20175;-71
2022/11/04 05:23:55;;;;;;;1999.90;999.90;;;;;;;9.74;100.00;94193.59;4997962;28;20182;-72
2022/11/04 05:26:20;;;;;;;1999.90;999.90;;;;;;;9.72;100.00;94194.03;4998116;28;20237;-72
2022/11/04 05:28:46;;;;;;;1999.90;999.90;;;;;;;9.67;100.00;94183.66;4997765;28;20186;-58
2022/11/04 05:31:11;;;;;;;1999.90;999.90;;;;;;;9.66;100.00;94179.38;4997765;28;20172;-73
2022/11/04 05:33:37;;;;;;;1999.90;999.90;;;;;;;9.66;100.00;94168.47;4997864;28;20179;-73
2022/11/04 05:36:11;;;;;;;1999.90;999.90;;;;;;;9.63;100.00;94172.06;4998351;28;20206;-73
2022/11/04 05:38:37;;;;;;;1999.90;999.90;;;;;;;9.60;100.00;94167.47;4999216;28;20226;-74
2022/11/04 05:41:03;;;;;;;1999.90;999.90;;;;;;;9.59;100.00;94173.34;4997952;28;20178;-73
2022/11/04 05:43:29;;;;;;;1999.90;999.90;;;;;;;9.57;100.00;94176.50;4997463;28;20221;-72
2022/11/04 05:45:54;;;;;;;1999.90;999.90;;;;;;;9.45;100.00;94174.44;4997679;28;20295;-67
2022/11/04 05:48:20;;;;;;;1999.90;999.90;;;;;;;9.47;100.00;94166.59;4997343;28;20182;-74
2022/11/04 05:50:45;;;;;;;1999.90;999.90;;;;;;;9.49;100.00;94153.34;4998135;28;20167;-73
2022/11/04 05:53:10;;;;;;;1999.90;999.90;;;;;;;9.51;100.00;94150.94;4997592;28;20229;-71
2022/11/04 05:55:36;;;;;;;1999.90;999.90;;;;;;;9.48;100.00;94140.13;4997344;28;20203;-75
2022/11/04 05:58:01;;;;;;;1999.90;999.90;;;;;;;9.50;100.00;94141.22;4997253;28;20178;-72
2022/11/04 06:00:28;;;;;;;1999.90;999.90;;;;;;;9.56;100.00;94136.81;4997206;28;20313;-73
2022/11/04 06:02:56;;;;;;;1999.90;999.90;;;;;;;9.54;100.00;94124.78;4997924;28;20167;-72
2022/11/04 06:05:21;;;;;;;1999.90;999.90;;;;;;;9.52;100.00;94127.19;4996946;28;20191;-68
2022/11/04 06:07:47;;;;;;;1999.90;999.90;;;;;;;9.44;100.00;94114.94;4997825;28;20267;-68
2022/11/04 06:10:12;;;;;;;1999.90;999.90;;;;;;;9.39;100.00;94105.31;4997058;28;20171;-68
2022/11/04 06:12:37;;;;;;;1999.90;999.90;;;;;;;9.35;100.00;94120.97;4997547;28;20179;-66
2022/11/04 06:15:03;;;;;;;1999.90;999.90;;;;;;;9.32;100.00;94130.00;4997292;28;20296;-69
2022/11/04 06:17:29;;;;;;;1999.90;999.90;;;;;;;9.32;100.00;94138.16;4997245;28;20218;-67
2022/11/04 06:19:54;;;;;;;1999.90;999.90;;;;;;;9.19;100.00;94110.09;4997321;28;20261;-67
2022/11/04 06:22:19;;;;;;;1999.90;999.90;;;;;;;9.14;100.00;94082.59;4997706;28;20267;-67
2022/11/04 06:24:45;;;;;;;1999.90;999.90;;;;;;;9.01;100.00;94028.06;4997233;28;20600;-59
2022/11/04 06:27:10;;;;;;;1999.90;999.90;;;;;;;8.89;100.00;93982.44;4997275;28;20198;-61
2022/11/04 06:29:40;;;;;;;1999.90;999.90;;;;;;;8.84;100.00;93925.81;4996840;28;20183;-60
2022/11/04 06:32:11;;;;;;;1999.90;999.90;;;;;;;8.78;100.00;93870.34;4997370;28;20190;-60
2022/11/04 06:34:37;;;;;;;1999.90;999.90;;;;;;;8.72;100.00;93823.09;5014609;28;20185;-60
2022/11/04 06:37:02;;;;;;;1999.90;999.90;;;;;;;8.71;100.00;93799.03;4999995;28;20287;-59
2022/11/04 06:39:28;;;;;;;1999.90;999.90;;;;;;;8.71;100.00;93780.75;5001303;28;20310;-59
2022/11/04 06:41:54;;;;;;;1999.90;999.90;;;;;;;8.72;100.00;93752.34;5001103;28;20183;-63
2022/11/04 06:44:19;;;;;;;1999.90;999.90;;;;;;;8.75;100.00;93740.59;5000912;28;20171;-62
2022/11/04 06:46:44;;;;;;;1999.90;999.90;;;;;;;8.76;100.00;93627.84;5000979;28;20225;-61
2022/11/04 06:49:17;;;;;;;1999.90;999.90;;;;;;;8.76;100.00;93584.31;5001205;28;20178;-64
2022/11/04 06:51:42;;;;;;;1999.90;999.90;;;;;;;8.74;100.00;93548.59;5001230;28;20179;-63
2022/11/04 06:54:08;;;;;;;1999.90;999.90;;;;;;;8.72;100.00;93518.34;5001448;28;20325;-61
2022/11/04 06:56:33;;;;;;;1999.90;999.90;;;;;;;8.72;100.00;93469.38;5000644;28;20214;-62
2022/11/04 06:58:59;;;;;;;1999.90;999.90;;;;;;;8.77;100.00;93422.53;5000643;28;20601;-67
2022/11/04 07:01:27;;;;;;;1999.90;999.90;;;;;;;8.79;100.00;93397.63;5000565;28;20207;-67
2022/11/04 07:03:58;;;;;;;1999.90;999.90;;;;;;;8.75;100.00;93351.47;5000523;28;20193;-66
2022/11/04 07:06:24;;;;;;;1999.90;999.90;;;;;;;8.79;100.00;93327.63;5000434;28;20179;-67
2022/11/04 07:08:51;;;;;;;1999.90;999.90;;;;;;;8.83;100.00;93301.06;5000393;28;20180;-66
2022/11/04 07:11:19;;;;;;;1999.90;999.90;;;;;;;8.84;100.00;93269.13;5000436;28;20189;-67
2022/11/04 07:13:45;;;;;;;1999.90;999.90;;;;;;;8.87;100.00;93244.53;5000100;28;20182;-67
2022/11/04 07:16:10;;;;;;;1999.90;999.90;;;;;;;8.80;100.00;93228.47;5000567;28;20210;-66
2022/11/04 07:18:36;;;;;;;1999.90;999.90;;;;;;;8.81;100.00;93210.94;5001094;28;20187;-63
2022/11/04 07:21:01;;;;;;;1999.90;999.90;;;;;;;8.86;100.00;93188.56;5000002;28;20229;-61
2022/11/04 07:23:27;;;;;;;1999.90;999.90;;;;;;;8.83;100.00;93186.00;5000243;28;20633;-61
2022/11/04 07:25:55;;;;;;;1999.90;999.90;;;;;;;8.85;100.00;93178.91;5000150;28;20210;-61
2022/11/04 07:28:20;;;;;;;1999.90;999.90;;;;;;;8.83;100.00;93159.56;5000188;28;20270;-59
2022/11/04 07:30:46;;;;;;;1999.90;999.90;;;;;;;8.87;100.00;93143.84;4999679;28;20186;-59
2022/11/04 07:33:11;;;;;;;1999.90;999.90;;;;;;;8.88;100.00;93129.03;5000519;28;20290;-60
2022/11/04 07:35:37;;;;;;;1999.90;999.90;;;;;;;8.92;100.00;93131.59;4999977;28;20217;-65
2022/11/04 07:38:03;;;;;;;1999.90;999.90;;;;;;;8.86;100.00;93131.41;5000013;28;20353;-68
2022/11/04 07:40:29;;;;;;;1999.90;999.90;;;;;;;8.85;100.00;93115.56;5000280;28;20288;-60
2022/11/04 07:42:54;;;;;;;1999.90;999.90;;;;;;;8.80;100.00;93100.56;4999825;28;20234;-58
2022/11/04 07:45:20;;;;;;;1999.90;999.90;;;;;;;8.74;100.00;93101.59;4999814;28;20257;-58
2022/11/04 07:47:45;;;;;;;1999.90;999.90;;;;;;;8.76;100.00;93088.31;4998302;28;20304;-58
2022/11/04 07:50:10;;;;;;;1999.90;999.90;;;;;;;8.73;100.00;93084.53;4999869;28;20179;-60
2022/11/04 07:52:36;;;;;;;1999.90;999.90;;;;;;;8.68;100.00;93108.84;5000538;28;20524;-60
2022/11/04 07:55:01;;;;;;;1999.90;999.90;;;;;;;8.63;100.00;93129.19;4999432;28;20183;-64
2022/11/04 07:57:28;;;;;;;1999.90;999.90;;;;;;;8.52;100.00;93134.28;4999315;28;20186;-64
2022/11/04 07:59:53;;;;;;;1999.90;999.90;;;;;;;8.56;100.00;93115.88;5000031;28;20213;-65
2022/11/04 08:02:19;;;;;;;1999.90;999.90;;;;;;;8.58;100.00;93108.03;4999963;28;20210;-65
2022/11/04 08:04:44;;;;;;;1999.90;999.90;;;;;;;8.57;100.00;93087.47;4999494;28;20224;-65
2022/11/04 08:07:10;;;;;;;1999.90;999.90;;;;;;;8.51;100.00;93072.94;4999355;28;20528;-67
2022/11/04 08:09:35;;;;;;;1999.90;999.90;;;;;;;8.50;100.00;93051.63;5000026;28;20268;-67
2022/11/04 08:12:02;;;;;;;1999.90;999.90;;;;;;;8.55;100.00;93176.91;4999655;28;20282;-66
2022/11/04 08:14:28;;;;;;;1999.90;999.90;;;;;;;8.60;100.00;93168.16;4999062;28;20220;-64
2022/11/04 08:16:53;;;;;;;1999.90;999.90;;;;;;;8.62;100.00;93143.25;4999794;28;20203;-72
2022/11/04 08:19:18;;;;;;;1999.90;999.90;;;;;;;8.60;100.00;93143.69;4998971;28;20183;-70
2022/11/04 08:21:44;;;;;;;1999.90;999.90;;;;;;;8.64;100.00;93149.75;4999829;28;20175;-71
2022/11/04 08:24:09;;;;;;;1999.90;999.90;;;;;;;8.66;100.00;93127.53;4999180;28;20193;-69
2022/11/04 08:26:34;;;;;;;1999.90;999.90;;;;;;;8.70;100.00;93118.06;4999119;28;20179;-73
2022/11/04 08:29:01;;;;;;;1999.90;999.90;;;;;;;8.73;100.00;93113.69;4998979;28;20178;-71
2022/11/04 08:31:29;;;;;;;1999.90;999.90;;;;;;;8.75;100.00;93105.84;4998879;28;20182;-63
2022/11/04 08:33:55;;;;;;;1999.90;999.90;;;;;;;8.77;100.00;93100.69;5014823;28;20175;-73
2022/11/04 08:36:22;;;;;;;1999.90;999.90;;;;;;;8.76;100.00;93099.19;4998782;28;20211;-65
2022/11/04 08:38:48;;;;;;;1999.90;999.90;;;;;;;8.74;100.00;93096.91;4998388;28;20229;-64
2022/11/04 08:41:16;;;;;;;1999.90;999.90;;;;;;;8.67;100.00;93102.63;4999270;28;20177;-65
2022/11/04 08:43:41;;;;;;;1999.90;999.90;;;;;;;8.65;100.00;93094.16;4999400;28;20320;-66
2022/11/04 08:46:09;;;;;;;1999.90;999.90;;;;;;;8.66;100.00;93098.41;4998434;28;20201;-65
2022/11/04 08:48:36;;;;;;;1999.90;999.90;;;;;;;8.69;100.00;93083.91;4998628;28;20243;-64
2022/11/04 08:51:02;;;;;;;1999.90;999.90;;;;;;;8.76;100.00;93061.84;4999459;28;20241;-60
2022/11/04 08:53:28;;;;;;;1999.90;999.90;;;;;;;8.75;100.00;93060.31;5015993;28;20176;-73
2022/11/04 08:55:53;;;;;;;1999.90;999.90;;;;;;;8.74;100.00;93058.06;4998283;28;20217;-72
2022/11/04 08:58:20;;;;;;;1999.90;999.90;;;;;;;8.73;100.00;93062.75;4998184;28;20187;-72
2022/11/04 09:00:45;;;;;;;1999.90;999.90;;;;;;;8.65;100.00;93066.97;4998469;28;20201;-70
2022/11/04 09:03:11;;;;;;;1999.90;999.90;;;;;;;8.63;100.00;93071.34;4999131;28;20253;-72
2022/11/04 09:05:46;;;;;;;1999.90;999.90;;;;;;;8.57;100.00;93076.59;5015534;28;20205;-71
2022/11/04 09:08:12;;;;;;;1999.90;999.90;;;;;;;8.58;100.00;93059.06;4998882;28;20169;-64
2022/11/04 09:10:43;;;;;;;1999.90;999.90;;;;;;;8.65;100.00;93045.19;4998234;28;20207;-61
2022/11/04 09:13:10;;;;;;;1999.90;999.90;;;;;;;8.70;100.00;93033.72;4998771;28;20178;-60
2022/11/04 09:15:36;;;;;;;1999.90;999.90;;;;;;;8.75;100.00;93022.22;4997818;28;20207;-61
2022/11/04 09:18:02;;;;;;;1999.90;999.90;;;;;;;8.75;100.00;93024.22;4998558;28;20185;-59
2022/11/04 09:20:27;;;;;;;1999.90;999.90;;;;;;;8.73;100.00;93032.81;4998580;28;20183;-58
2022/11/04 09:22:54;;;;;;;1999.90;999.90;;;;;;;8.72;100.00;93047.63;4997774;28;20179;-60
2022/11/04 09:25:19;;;;;;;1999.90;999.90;;;;;;;8.69;100.00;93043.09;4998050;28;20236;-60
2022/11/04 09:27:45;;;;;;;1999.90;999.90;;;;;;;8.70;100.00;93031.00;4997886;28;20181;-64
2022/11/04 09:30:11;;;;;;;1999.90;999.90;;;;;;;8.71;100.00;93032.50;5015410;28;20266;-72
2022/11/04 09:32:36;;;;;;;1999.90;999.90;;;;;;;8.70;100.00;93031.00;4997722;28;20271;-72
2022/11/04 09:35:01;;;;;;;1999.90;999.90;;;;;;;8.69;100.00;93034.94;4997849;28;20200;-71
2022/11/04 09:37:27;;;;;;;1999.90;999.90;;;;;;;8.74;100.00;93041.75;4997434;28;20177;-74
2022/11/04 09:39:52;;;;;;;1999.90;999.90;;;;;;;8.75;100.00;93049.44;4998488;28;20214;-70
2022/11/04 09:42:29;;;;;;;1999.90;999.90;;;;;;;8.72;100.00;93055.81;4997839;28;20206;-72
2022/11/04 09:45:00;;;;;;;1999.90;999.90;;;;;;;8.74;100.00;93058.06;4997517;28;20178;-71
2022/11/04 09:47:26;;;;;;;1999.90;999.90;;;;;;;8.70;100.00;93058.19;4998309;28;20269;-59
2022/11/04 09:49:56;;;;;;;1999.90;999.90;;;;;;;8.72;100.00;93063.19;4998157;28;20172;-60
2022/11/04 09:52:36;;;;;;;1999.90;999.90;;;;;;;8.74;100.00;93061.53;4997974;28;20229;-59
2022/11/04 09:55:13;;;;;;;1999.90;999.90;;;;;;;8.71;100.00;93059.72;4997059;28;20175;-59
2022/11/04 09:57:39;;;;;;;1999.90;999.90;;;;;;;8.73;100.00;93057.31;4997266;28;20273;-59
2022/11/04 10:00:05;;;;;;;1999.90;999.90;;;;;;;8.65;100.00;93047.91;4997458;28;20191;-60
2022/11/04 10:02:40;;;;;;;1999.90;999.90;;;;;;;8.64;100.00;93043.66;4997306;28;20178;-59
2022/11/04 10:05:41;;;;;;;1999.90;999.90;;;;;;;8.67;100.00;93053.66;4997414;28;20198;-64
2022/11/04 10:08:15;;;;;;;1999.90;999.90;;;;;;;8.69;100.00;93026.78;4989878;28;20193;-71
2022/11/04 10:10:54;;;;;;;1999.90;999.90;;;;;;;8.81;100.00;93020.44;4996901;28;20178;-70
2022/11/04 10:13:50;;;;;;;1999.90;999.90;;;;;;;8.87;100.00;93020.63;4997606;28;20183;-72
2022/11/04 10:16:22;;;;;;;1999.90;999.90;;;;;;;8.83;100.00;93018.03;4997082;28;20218;-72
2022/11/04 10:19:29;;;;;;;1999.90;999.90;;;;;;;8.87;100.00;93034.22;4996955;28;20659;-71
2022/11/04 10:22:11;;;;;;;1999.90;999.90;;;;;;;8.78;100.00;93032.22;4944512;28;20247;-59
2022/11/04 10:25:08;;;;;;;1999.90;999.90;;;;;;;8.83;100.00;93026.22;4997273;28;20174;-60
2022/11/04 10:27:37;;;;;;;1999.90;999.90;;;;;;;8.87;100.00;93023.34;4997539;28;20210;-59
2022/11/04 10:30:12;;;;;;;1999.90;999.90;;;;;;;8.93;100.00;93005.22;4997887;28;20179;-59
2022/11/04 10:33:17;;;;;;;1999.90;999.90;;;;;;;8.98;100.00;92997.22;4997112;28;20203;-59
2022/11/04 10:36:05;;;;;;;1999.90;999.90;;;;;;;9.07;100.00;92989.03;4986673;28;20250;-60
2022/11/04 10:38:43;;;;;;;1999.90;999.90;;;;;;;9.12;100.00;92988.47;4996668;28;20229;-59
2022/11/04 10:41:23;;;;;;;1999.90;999.90;;;;;;;9.19;100.00;92965.63;4996654;28;20189;-63
2022/11/04 10:43:57;;;;;;;1999.90;999.90;;;;;;;9.24;100.00;92963.03;4996830;28;20201;-75
2022/11/04 10:46:50;;;;;;;1999.90;999.90;;;;;;;9.25;100.00;92978.16;4996767;28;20170;-74
2022/11/04 10:49:37;;;;;;;1999.90;999.90;;;;;;;9.24;100.00;92984.06;4997757;28;20171;-75
2022/11/04 10:52:04;;;;;;;1999.90;999.90;;;;;;;9.23;100.00;92994.22;4997112;28;20191;-75
2022/11/04 10:54:41;;;;;;;1999.90;999.90;;;;;;;9.17;100.00;93015.06;4996676;28;20179;-75
2022/11/04 10:57:06;;;;;;;1999.90;999.90;;;;;;;9.20;100.00;93019.63;4996827;28;20209;-75
2022/11/04 10:59:45;;;;;;;1999.90;999.90;;;;;;;9.30;100.00;93025.84;4996701;28;20266;-63
2022/11/04 11:02:11;;;;;;;1999.90;999.90;;;;;;;9.39;100.00;93023.88;4997469;28;20259;-71
2022/11/04 11:04:39;;;;;;;1999.90;999.90;;;;;;;9.34;100.00;93046.28;4996446;28;20226;-73
2022/11/04 11:07:09;;;;;;;1999.90;999.90;;;;;;;9.27;100.00;93068.34;4996499;28;20273;-72
2022/11/04 11:09:41;;;;;;;1999.90;999.90;;;;;;;9.27;100.00;93090.13;4996766;28;20182;-76
2022/11/04 11:12:13;;;;;;;1999.90;999.90;;;;;;;9.25;100.00;93102.69;4996465;28;20182;-72
2022/11/04 11:14:41;;;;;;;1999.90;999.90;;;;;;;9.27;100.00;93116.59;4997126;28;20226;-72
2022/11/04 11:17:33;;;;;;;1999.90;999.90;;;;;;;9.27;100.00;93133.69;4997242;28;20266;-71
2022/11/04 11:20:17;;;;;;;1999.90;999.90;;;;;;;9.26;100.00;93156.69;4997158;28;20186;-60
2022/11/04 11:22:44;;;;;;;1999.90;999.90;;;;;;;9.24;100.00;93171.94;4999015;28;20171;-60
2022/11/04 11:25:27;;;;;;;1999.90;999.90;;;;;;;9.26;100.00;93196.78;5000454;28;20175;-59
2022/11/04 11:28:08;;;;;;;1999.90;999.90;;;;;;;9.21;100.00;93205.50;5000087;28;20249;-59
2022/11/04 11:30:40;;;;;;;1999.90;999.90;;;;;;;9.15;100.00;93213.50;5000634;28;20170;-59
2022/11/04 11:33:17;;;;;;;1999.90;999.90;;;;;;;9.06;100.00;93232.53;4999975;28;20222;-60
2022/11/04 11:35:52;;;;;;;1999.90;999.90;;;;;;;9.04;100.00;93243.09;5017172;28;20194;-72